createdAt,value
2017-07-09T00:00:51.848Z,7.10
2017-07-09T00:03:19.406Z,7.20
2017-07-09T00:05:47.023Z,6.80
2017-07-09T00:08:14.563Z,7.33
2017-07-09T00:10:42.157Z,7.30
2017-07-09T00:13:09.757Z,7.17
2017-07-09T00:15:37.300Z,7.40
2017-07-09T00:18:04.903Z,6.90
2017-07-09T00:20:32.790Z,6.97
2017-07-09T00:23:00.356Z,7.13
2017-07-09T00:25:27.933Z,7.30
2017-07-09T00:27:55.553Z,7.80
2017-07-09T00:30:23.102Z,7.73
2017-07-09T00:32:50.857Z,7.40
2017-07-09T00:35:18.601Z,7.53
2017-07-09T00:37:46.214Z,7.77
2017-07-09T00:40:13.758Z,6.80
2017-07-09T00:42:41.401Z,7.83
2017-07-09T00:45:08.977Z,7.77
2017-07-09T00:47:36.538Z,8.43
2017-07-09T00:50:03.933Z,7.63
2017-07-09T00:52:31.487Z,10.10
2017-07-09T00:54:59.039Z,9.00
2017-07-09T00:57:26.664Z,8.40
2017-07-09T00:59:54.205Z,8.07
2017-07-09T01:02:21.781Z,8.70
2017-07-09T01:04:49.818Z,8.50
2017-07-09T01:07:17.363Z,8.77
2017-07-09T01:09:45.612Z,7.90
2017-07-09T01:12:13.883Z,7.93
2017-07-09T01:14:41.473Z,8.40
2017-07-09T01:17:09.018Z,7.27
2017-07-09T01:19:37.077Z,8.30
2017-07-09T01:22:04.620Z,9.40
2017-07-09T01:24:32.519Z,8.47
2017-07-09T01:27:01.091Z,8.07
2017-07-09T01:29:28.799Z,9.47
2017-07-09T01:31:56.413Z,9.07
2017-07-09T01:34:24.006Z,9.97
2017-07-09T01:36:51.561Z,7.73
2017-07-09T01:39:19.165Z,9.33
2017-07-09T01:41:46.770Z,8.70
2017-07-09T01:44:14.314Z,10.10
2017-07-09T01:46:41.873Z,11.30
2017-07-09T01:49:09.486Z,8.70
2017-07-09T01:51:37.282Z,9.13
2017-07-09T01:54:04.787Z,8.97
2017-07-09T01:56:32.585Z,9.70
2017-07-09T01:59:00.105Z,8.03
2017-07-09T02:01:27.611Z,8.77
2017-07-09T02:03:55.191Z,8.07
2017-07-09T02:06:22.700Z,8.90
2017-07-09T02:08:50.330Z,9.30
2017-07-09T02:11:18.182Z,8.13
2017-07-09T02:13:45.864Z,8.87
2017-07-09T02:16:13.471Z,7.20
2017-07-09T02:18:41.173Z,8.10
2017-07-09T02:21:08.680Z,8.13
2017-07-09T02:23:36.192Z,8.17
2017-07-09T02:26:03.715Z,8.23
2017-07-09T02:28:31.223Z,8.30
2017-07-09T02:30:58.730Z,8.50
2017-07-09T02:33:26.729Z,9.63
2017-07-09T02:35:54.239Z,9.00
2017-07-09T02:38:21.744Z,8.80
2017-07-09T02:40:49.443Z,9.10
2017-07-09T02:43:16.951Z,8.30
2017-07-09T02:45:44.468Z,7.70
2017-07-09T02:48:12.359Z,9.07
2017-07-09T02:50:39.871Z,7.73
2017-07-09T02:53:07.434Z,7.00
2017-07-09T02:55:34.995Z,7.50
2017-07-09T02:58:02.500Z,7.63
2017-07-09T03:00:29.999Z,7.93
2017-07-09T03:02:57.639Z,8.77
2017-07-09T03:05:25.144Z,8.00
2017-07-09T03:07:52.644Z,7.43
2017-07-09T03:10:20.178Z,7.73
2017-07-09T03:12:47.687Z,7.53
2017-07-09T03:15:15.199Z,7.10
2017-07-09T03:17:42.775Z,7.07
2017-07-09T03:20:10.327Z,7.20
2017-07-09T03:22:37.830Z,8.10
2017-07-09T03:25:05.644Z,7.97
2017-07-09T03:27:33.163Z,7.20
2017-07-09T03:30:00.667Z,9.20
2017-07-09T03:32:28.612Z,8.10
2017-07-09T03:34:56.235Z,7.20
2017-07-09T03:37:24.144Z,8.00
2017-07-09T03:39:51.647Z,7.63
2017-07-09T03:42:19.152Z,7.53
2017-07-09T03:44:46.711Z,7.47
2017-07-09T03:47:14.244Z,6.73
2017-07-09T03:49:41.795Z,7.53
2017-07-09T03:52:09.668Z,6.97
2017-07-09T03:54:37.172Z,8.30
2017-07-09T03:57:04.759Z,7.40
2017-07-09T03:59:33.059Z,8.43
2017-07-09T04:02:00.866Z,7.80
2017-07-09T04:04:28.504Z,8.20
2017-07-09T04:06:56.296Z,9.70
2017-07-09T04:09:24.031Z,9.03
2017-07-09T04:11:51.541Z,7.70
2017-07-09T04:14:19.352Z,8.50
2017-07-09T04:16:46.857Z,7.70
2017-07-09T04:19:14.371Z,7.17
2017-07-09T04:21:42.026Z,8.00
2017-07-09T04:24:09.541Z,7.60
2017-07-09T04:26:37.051Z,8.83
2017-07-09T04:29:04.790Z,7.80
2017-07-09T04:31:32.316Z,8.50
2017-07-09T04:33:59.846Z,8.70
2017-07-09T04:36:27.652Z,9.07
2017-07-09T04:38:55.191Z,8.50
2017-07-09T04:41:22.702Z,7.67
2017-07-09T04:43:50.260Z,7.87
2017-07-09T04:46:17.766Z,7.63
2017-07-09T04:48:45.299Z,8.63
2017-07-09T04:51:13.144Z,6.47
2017-07-09T04:53:40.920Z,7.50
2017-07-09T04:56:08.456Z,7.37
2017-07-09T04:58:36.016Z,8.97
2017-07-09T05:01:03.523Z,9.00
2017-07-09T05:03:31.031Z,8.60
2017-07-09T05:05:58.640Z,7.70
2017-07-09T05:08:26.192Z,8.20
2017-07-09T05:10:53.700Z,9.10
2017-07-09T05:13:21.531Z,9.20
2017-07-09T05:15:49.132Z,9.47
2017-07-09T05:18:16.649Z,9.77
2017-07-09T05:20:44.189Z,8.50
2017-07-09T05:23:11.896Z,7.90
2017-07-09T05:25:39.551Z,7.97
2017-07-09T05:28:07.856Z,9.17
2017-07-09T05:30:36.080Z,7.43
2017-07-09T05:33:03.953Z,7.87
2017-07-09T05:35:31.486Z,8.60
2017-07-09T05:37:59.015Z,8.97
2017-07-09T05:40:26.779Z,9.67
2017-07-09T05:42:55.212Z,9.87
2017-07-09T05:45:23.151Z,9.00
2017-07-09T05:47:51.198Z,9.10
2017-07-09T05:50:20.144Z,9.17
2017-07-09T05:52:48.281Z,8.67
2017-07-09T05:55:16.292Z,9.27
2017-07-09T05:57:44.828Z,9.37
2017-07-09T06:00:12.337Z,9.30
2017-07-09T06:02:39.853Z,8.67
2017-07-09T06:05:07.519Z,9.73
2017-07-09T06:07:35.035Z,10.87
2017-07-09T06:10:02.549Z,10.37
2017-07-09T06:12:30.516Z,10.37
2017-07-09T06:14:58.360Z,10.23
2017-07-09T06:17:25.917Z,9.87
2017-07-09T06:19:53.464Z,10.13
2017-07-09T06:22:21.048Z,9.50
2017-07-09T06:24:48.560Z,9.37
2017-07-09T06:27:16.075Z,8.80
2017-07-09T06:29:43.661Z,9.43
2017-07-09T06:32:11.264Z,9.00
2017-07-09T06:34:38.814Z,9.27
2017-07-09T06:37:06.594Z,9.30
2017-07-09T06:39:34.108Z,10.47
2017-07-09T06:42:01.616Z,9.63
2017-07-09T06:44:29.295Z,9.37
2017-07-09T06:46:56.807Z,8.97
2017-07-09T06:49:24.316Z,8.90
2017-07-09T06:51:52.132Z,8.53
2017-07-09T06:54:19.639Z,8.47
2017-07-09T06:56:47.146Z,7.57
2017-07-09T06:59:14.993Z,9.20
2017-07-09T07:01:42.568Z,6.80
2017-07-09T07:04:10.527Z,6.43
2017-07-09T07:06:38.040Z,6.73
2017-07-09T07:09:05.559Z,6.93
2017-07-09T07:11:33.154Z,6.73
2017-07-09T07:14:00.684Z,5.93
2017-07-09T07:16:28.203Z,6.53
2017-07-09T07:18:55.783Z,5.57
2017-07-09T07:21:23.325Z,6.27
2017-07-09T07:23:50.841Z,5.70
2017-07-09T07:26:18.666Z,5.90
2017-07-09T07:28:46.172Z,5.77
2017-07-09T07:31:13.676Z,6.27
2017-07-09T07:33:41.221Z,6.17
2017-07-09T07:36:08.752Z,5.63
2017-07-09T07:38:36.259Z,5.77
2017-07-09T07:41:04.060Z,6.00
2017-07-09T07:43:31.582Z,5.30
2017-07-09T07:45:59.083Z,5.93
2017-07-09T07:48:26.888Z,6.00
2017-07-09T07:50:54.393Z,5.40
2017-07-09T07:53:21.899Z,6.70
2017-07-09T07:55:49.459Z,5.00
2017-07-09T07:58:16.970Z,4.87
2017-07-09T08:00:44.493Z,6.07
2017-07-09T08:03:12.089Z,5.90
2017-07-09T08:05:39.600Z,5.10
2017-07-09T08:08:07.088Z,5.87
2017-07-09T08:10:34.967Z,6.87
2017-07-09T08:13:02.484Z,6.70
2017-07-09T08:15:30.023Z,5.97
2017-07-09T08:17:57.580Z,6.03
2017-07-09T08:20:25.100Z,5.73
2017-07-09T08:22:52.608Z,5.27
2017-07-09T08:25:20.167Z,5.40
2017-07-09T08:27:47.672Z,5.40
2017-07-09T08:30:15.182Z,5.70
2017-07-09T08:32:42.753Z,5.47
2017-07-09T08:35:10.273Z,6.33
2017-07-09T08:37:37.788Z,6.33
2017-07-09T08:40:05.637Z,6.07
2017-07-09T08:42:33.144Z,6.50
2017-07-09T08:45:00.659Z,6.37
2017-07-09T08:47:28.609Z,5.00
2017-07-09T08:49:56.141Z,6.40
2017-07-09T08:52:23.664Z,5.90
2017-07-09T08:54:51.370Z,5.73
2017-07-09T08:57:18.891Z,5.80
2017-07-09T08:59:46.403Z,6.30
2017-07-09T09:02:13.971Z,5.70
2017-07-09T09:04:41.484Z,6.10
2017-07-09T09:07:09.649Z,5.10
2017-07-09T09:09:37.481Z,5.33
2017-07-09T09:12:04.995Z,5.70
2017-07-09T09:14:32.529Z,5.50
2017-07-09T09:17:00.467Z,5.20
2017-07-09T09:19:27.980Z,5.20
2017-07-09T09:21:55.489Z,4.00
2017-07-09T09:24:23.044Z,5.23
2017-07-09T09:26:50.574Z,5.50
2017-07-09T09:29:18.084Z,4.53
2017-07-09T09:31:45.633Z,4.37
2017-07-09T09:34:12.596Z,4.20
2017-07-09T09:36:40.128Z,4.77
2017-07-09T09:39:07.687Z,5.20
2017-07-09T09:41:35.204Z,4.03
2017-07-09T09:44:02.712Z,4.20
2017-07-09T09:46:30.517Z,4.90
2017-07-09T09:48:58.026Z,4.83
2017-07-09T09:51:25.531Z,4.97
2017-07-09T09:53:53.103Z,4.60
2017-07-09T09:56:20.626Z,5.37
2017-07-09T09:58:48.143Z,4.80
2017-07-09T10:01:16.073Z,4.40
2017-07-09T10:03:43.588Z,5.67
2017-07-09T10:06:11.106Z,4.53
2017-07-09T10:08:38.664Z,5.13
2017-07-09T10:11:06.218Z,5.40
2017-07-09T10:13:33.726Z,4.30
2017-07-09T10:16:01.551Z,4.50
2017-07-09T10:18:29.076Z,4.77
2017-07-09T10:20:56.594Z,4.30
2017-07-09T10:23:24.191Z,4.90
2017-07-09T10:25:51.715Z,4.83
2017-07-09T10:28:19.261Z,5.20
2017-07-09T10:30:46.844Z,4.23
2017-07-09T10:33:14.369Z,4.87
2017-07-09T10:35:41.915Z,4.83
2017-07-09T10:38:09.464Z,4.47
2017-07-09T10:40:37.027Z,4.50
2017-07-09T10:43:04.565Z,4.90
2017-07-09T10:45:32.149Z,6.30
2017-07-09T10:47:59.696Z,5.00
2017-07-09T10:50:27.247Z,5.63
2017-07-09T10:52:55.037Z,5.20
2017-07-09T10:55:22.547Z,4.30
2017-07-09T10:57:50.073Z,4.50
2017-07-09T11:00:17.916Z,4.77
2017-07-09T11:02:45.459Z,4.87
2017-07-09T11:05:12.965Z,5.40
2017-07-09T11:07:40.756Z,5.07
2017-07-09T11:10:08.456Z,4.63
2017-07-09T11:12:36.543Z,5.70
2017-07-09T11:15:04.404Z,4.90
2017-07-09T11:17:31.916Z,4.90
2017-07-09T11:19:59.428Z,4.60
2017-07-09T11:22:27.183Z,4.60
2017-07-09T11:24:54.722Z,4.13
2017-07-09T11:27:22.236Z,4.03
2017-07-09T11:29:50.086Z,4.20
2017-07-09T11:32:17.837Z,5.53
2017-07-09T11:34:45.360Z,4.80
2017-07-09T11:37:13.277Z,4.63
2017-07-09T11:39:40.796Z,4.37
2017-07-09T11:42:08.305Z,4.60
2017-07-09T11:44:35.858Z,4.50
2017-07-09T11:47:03.438Z,4.50
2017-07-09T11:49:31.639Z,4.60
2017-07-09T11:51:59.212Z,4.93
2017-07-09T11:54:27.203Z,6.13
2017-07-09T11:56:54.751Z,5.37
2017-07-09T11:59:22.905Z,5.43
2017-07-09T12:01:50.483Z,5.23
2017-07-09T12:04:18.035Z,5.20
2017-07-09T12:06:45.713Z,5.00
2017-07-09T12:09:13.215Z,4.30
2017-07-09T12:11:40.815Z,4.50
2017-07-09T12:14:08.374Z,4.40
2017-07-09T12:16:35.891Z,4.63
2017-07-09T12:19:03.397Z,4.50
2017-07-09T12:21:31.005Z,5.10
2017-07-09T12:23:58.520Z,5.03
2017-07-09T12:26:26.035Z,5.20
2017-07-09T12:28:54.027Z,4.83
2017-07-09T12:31:21.537Z,5.30
2017-07-09T12:33:49.575Z,4.87
2017-07-09T12:36:17.427Z,4.57
2017-07-09T12:38:45.012Z,5.90
2017-07-09T12:41:12.769Z,5.50
2017-07-09T12:43:40.445Z,5.47
2017-07-09T12:46:07.951Z,5.00
2017-07-09T12:48:35.452Z,4.60
2017-07-09T12:51:02.996Z,4.57
2017-07-09T12:53:30.699Z,5.17
2017-07-09T12:55:58.208Z,4.83
2017-07-09T12:58:25.772Z,6.67
2017-07-09T13:00:53.332Z,4.60
2017-07-09T13:03:20.851Z,5.00
2017-07-09T13:05:48.759Z,7.73
2017-07-09T13:08:16.263Z,8.83
2017-07-09T13:10:43.763Z,6.93
2017-07-09T13:13:11.311Z,6.50
2017-07-09T13:15:40.852Z,5.70
2017-07-09T13:18:08.635Z,5.40
2017-07-09T13:20:36.301Z,43.73
2017-07-09T13:23:04.925Z,93.93
2017-07-09T13:25:32.647Z,77.07
2017-07-09T13:28:00.194Z,5.40
2017-07-09T13:30:27.903Z,4.40
2017-07-09T13:32:55.428Z,5.07
2017-07-09T13:35:23.012Z,3.90
2017-07-09T13:37:50.971Z,5.13
2017-07-09T13:40:18.506Z,5.60
2017-07-09T13:42:46.062Z,4.67
2017-07-09T13:45:13.576Z,4.93
2017-07-09T13:47:41.680Z,5.40
2017-07-09T13:50:09.319Z,5.43
2017-07-09T13:52:36.835Z,5.50
2017-07-09T13:55:04.600Z,6.70
2017-07-09T13:57:32.280Z,5.40
2017-07-09T13:59:59.999Z,6.40
2017-07-09T14:02:27.775Z,5.37
2017-07-09T14:04:55.330Z,5.70
2017-07-09T14:07:22.836Z,4.80
2017-07-09T14:09:50.339Z,6.53
2017-07-09T14:12:18.309Z,4.73
2017-07-09T14:14:45.839Z,6.93
2017-07-09T14:17:13.344Z,6.50
2017-07-09T14:19:41.196Z,5.80
2017-07-09T14:22:08.713Z,6.40
2017-07-09T14:24:36.785Z,5.27
2017-07-09T14:27:04.355Z,5.90
2017-07-09T14:29:31.878Z,5.40
2017-07-09T14:31:59.383Z,5.60
2017-07-09T14:34:26.940Z,5.60
2017-07-09T14:36:54.532Z,4.80
2017-07-09T14:39:22.058Z,6.53
2017-07-09T14:41:49.611Z,6.80
2017-07-09T14:44:17.116Z,5.90
2017-07-09T14:46:44.633Z,5.93
2017-07-09T14:49:12.628Z,5.33
2017-07-09T14:51:40.151Z,6.20
2017-07-09T14:54:07.671Z,12.50
2017-07-09T14:56:35.284Z,10.43
2017-07-09T14:59:03.013Z,5.40
2017-07-09T15:01:30.526Z,7.47
2017-07-09T15:03:58.455Z,7.73
2017-07-09T15:06:26.127Z,8.00
2017-07-09T15:08:53.632Z,6.30
2017-07-09T15:11:21.241Z,6.00
2017-07-09T15:13:48.868Z,8.90
2017-07-09T15:16:16.405Z,6.57
2017-07-09T15:18:44.120Z,6.47
2017-07-09T15:21:11.692Z,5.93
2017-07-09T15:23:39.511Z,8.30
2017-07-09T15:26:07.375Z,6.07
2017-07-09T15:28:34.954Z,6.47
2017-07-09T15:31:02.482Z,8.00
2017-07-09T15:33:30.344Z,5.53
2017-07-09T15:35:57.888Z,6.50
2017-07-09T15:38:25.511Z,6.63
2017-07-09T15:40:53.217Z,9.70
2017-07-09T15:43:20.804Z,9.40
2017-07-09T15:45:48.359Z,9.43
2017-07-09T15:48:15.965Z,5.47
2017-07-09T15:50:43.492Z,6.60
2017-07-09T15:53:11.066Z,8.20
2017-07-09T15:55:39.159Z,6.73
2017-07-09T15:58:06.689Z,7.63
2017-07-09T16:00:34.224Z,6.20
2017-07-09T16:03:02.144Z,6.10
2017-07-09T16:05:30.605Z,6.20
2017-07-09T16:07:58.482Z,6.93
2017-07-09T16:10:26.220Z,4.97
2017-07-09T16:12:53.885Z,6.60
2017-07-09T16:15:21.995Z,5.17
2017-07-09T16:17:50.731Z,7.23
2017-07-09T16:20:19.208Z,5.33
2017-07-09T16:22:47.298Z,5.90
2017-07-09T16:25:14.875Z,6.50
2017-07-09T16:27:42.880Z,4.80
2017-07-09T16:30:10.535Z,5.20
2017-07-09T16:32:38.491Z,5.10
2017-07-09T16:35:06.107Z,5.90
2017-07-09T16:37:34.403Z,5.40
2017-07-09T16:40:02.675Z,5.07
2017-07-09T16:42:30.247Z,6.03
2017-07-09T16:44:57.916Z,6.77
2017-07-09T16:47:26.379Z,6.00
2017-07-09T16:49:53.956Z,6.73
2017-07-09T16:52:21.679Z,6.50
2017-07-09T16:54:50.324Z,6.67
2017-07-09T16:57:17.861Z,7.87
2017-07-09T16:59:45.371Z,9.13
2017-07-09T17:02:13.111Z,10.23
2017-07-09T17:04:40.955Z,6.53
2017-07-09T17:07:08.624Z,7.50
2017-07-09T17:09:36.676Z,6.63
2017-07-09T17:12:04.598Z,5.73
2017-07-09T17:14:32.951Z,6.67
2017-07-09T17:17:01.310Z,5.97
2017-07-09T17:19:29.318Z,6.63
2017-07-09T17:21:56.866Z,6.77
2017-07-09T17:24:25.434Z,6.90
2017-07-09T17:26:52.962Z,5.70
2017-07-09T17:29:21.697Z,6.00
2017-07-09T17:31:49.613Z,6.60
2017-07-09T17:34:17.140Z,7.00
2017-07-09T17:36:45.680Z,7.00
2017-07-09T17:39:13.286Z,5.60
2017-07-09T17:41:40.810Z,5.53
2017-07-09T17:44:08.331Z,6.17
2017-07-09T17:46:36.546Z,6.80
2017-07-09T17:49:04.166Z,5.80
2017-07-09T17:51:31.792Z,6.63
2017-07-09T17:54:00.259Z,6.07
2017-07-09T17:56:27.767Z,6.13
2017-07-09T17:58:55.334Z,6.63
2017-07-09T18:01:22.990Z,5.90
2017-07-09T18:03:50.499Z,5.60
2017-07-09T18:06:18.176Z,5.00
2017-07-09T18:08:45.779Z,6.63
2017-07-09T18:11:13.289Z,5.73
2017-07-09T18:13:40.799Z,6.03
2017-07-09T18:16:08.603Z,7.30
2017-07-09T18:18:36.112Z,6.30
2017-07-09T18:21:03.644Z,6.23
2017-07-09T18:23:31.467Z,6.17
2017-07-09T18:25:59.611Z,6.50
2017-07-09T18:28:27.124Z,6.13
2017-07-09T18:30:54.728Z,6.67
2017-07-09T18:33:22.325Z,6.67
2017-07-09T18:35:49.860Z,7.00
2017-07-09T18:38:17.448Z,5.90
2017-07-09T18:40:44.960Z,5.20
2017-07-09T18:43:12.471Z,5.97
2017-07-09T18:45:40.075Z,6.00
2017-07-09T18:48:08.238Z,5.97
2017-07-09T18:50:35.776Z,5.77
2017-07-09T18:53:03.647Z,6.50
2017-07-09T18:55:31.224Z,6.10
2017-07-09T18:57:58.895Z,6.00
2017-07-09T19:00:26.460Z,6.20
2017-07-09T19:02:53.972Z,6.30
2017-07-09T19:05:21.479Z,5.90
2017-07-09T19:07:49.058Z,7.00
2017-07-09T19:10:17.513Z,7.27
2017-07-09T19:12:45.029Z,6.30
2017-07-09T19:15:12.681Z,5.80
2017-07-09T19:17:40.731Z,6.77
2017-07-09T19:20:08.271Z,7.20
2017-07-09T19:22:35.920Z,7.73
2017-07-09T19:25:03.696Z,7.27
2017-07-09T19:27:31.923Z,6.50
2017-07-09T19:29:59.430Z,7.07
2017-07-09T19:32:27.228Z,6.37
2017-07-09T19:34:54.812Z,6.70
2017-07-09T19:37:22.589Z,6.90
2017-07-09T19:39:50.443Z,7.07
2017-07-09T19:42:18.071Z,6.67
2017-07-09T19:44:45.760Z,8.13
2017-07-09T19:47:13.564Z,7.20
2017-07-09T19:49:41.235Z,7.50
2017-07-09T19:52:08.952Z,7.50
2017-07-09T19:54:36.763Z,7.43
2017-07-09T19:57:04.417Z,7.57
2017-07-09T19:59:32.172Z,6.33
2017-07-09T20:02:00.106Z,6.33
2017-07-09T20:04:28.708Z,7.40
2017-07-09T20:06:56.236Z,6.63
2017-07-09T20:09:23.851Z,6.27
2017-07-09T20:11:51.424Z,5.87
2017-07-09T20:14:19.098Z,5.73
2017-07-09T20:16:46.688Z,5.50
2017-07-09T20:19:15.035Z,5.97
2017-07-09T20:21:43.192Z,4.90
2017-07-09T20:24:10.707Z,5.00
2017-07-09T20:26:38.512Z,6.10
2017-07-09T20:29:06.072Z,5.87
2017-07-09T20:31:33.587Z,6.40
2017-07-09T20:34:01.423Z,6.47
2017-07-09T20:36:28.950Z,5.93
2017-07-09T20:38:57.101Z,6.03
2017-07-09T20:41:24.703Z,6.77
2017-07-09T20:43:52.380Z,8.03
2017-07-09T20:46:19.923Z,7.47
2017-07-09T20:48:47.491Z,7.63
2017-07-09T20:51:15.015Z,7.60
2017-07-09T20:53:42.528Z,9.63
2017-07-09T20:56:10.095Z,7.80
2017-07-09T20:58:37.623Z,7.83
2017-07-09T21:01:05.139Z,8.37
2017-07-09T21:03:32.788Z,7.50
2017-07-09T21:06:00.321Z,7.40
2017-07-09T21:08:27.844Z,8.90
2017-07-09T21:10:55.728Z,7.37
2017-07-09T21:13:23.280Z,7.37
2017-07-09T21:15:50.950Z,7.40
2017-07-09T21:18:19.030Z,7.53
2017-07-09T21:20:46.677Z,7.77
2017-07-09T21:23:14.231Z,9.20
2017-07-09T21:25:41.799Z,7.93
2017-07-09T21:28:09.314Z,9.40
2017-07-09T21:30:36.835Z,10.30
2017-07-09T21:33:04.758Z,9.80
2017-07-09T21:35:32.337Z,10.13
2017-07-09T21:37:59.870Z,9.53
2017-07-09T21:40:27.428Z,10.80
2017-07-09T21:42:54.932Z,9.50
2017-07-09T21:45:23.217Z,10.10
2017-07-09T21:47:50.800Z,10.27
2017-07-09T21:50:18.315Z,11.00
2017-07-09T21:52:45.832Z,11.83
2017-07-09T21:55:13.664Z,11.43
2017-07-09T21:57:41.182Z,10.00
2017-07-09T22:00:08.729Z,10.10
2017-07-09T22:02:36.373Z,10.93
2017-07-09T22:05:05.037Z,7.40
2017-07-09T22:07:32.552Z,8.77
2017-07-09T22:10:00.108Z,8.83
2017-07-09T22:12:27.704Z,8.67
2017-07-09T22:14:55.229Z,9.13
2017-07-09T22:17:22.743Z,9.30
2017-07-09T22:19:50.346Z,7.40
2017-07-09T22:22:17.896Z,6.97
2017-07-09T22:24:45.427Z,7.97
2017-07-09T22:27:12.988Z,7.57
2017-07-09T22:29:40.578Z,7.83
2017-07-09T22:32:08.099Z,7.77
2017-07-09T22:34:35.657Z,6.90
2017-07-09T22:37:03.173Z,8.10
2017-07-09T22:39:30.680Z,6.93
2017-07-09T22:41:58.600Z,7.43
2017-07-09T22:44:26.106Z,6.30
2017-07-09T22:46:53.752Z,6.00
2017-07-09T22:49:21.916Z,7.10
2017-07-09T22:51:49.427Z,6.37
2017-07-09T22:54:17.115Z,5.30
2017-07-09T22:56:44.840Z,5.13
2017-07-09T22:59:12.771Z,6.53
2017-07-09T23:01:41.157Z,5.77
2017-07-09T23:04:09.926Z,6.20
2017-07-09T23:06:37.431Z,6.47
2017-07-09T23:09:04.955Z,5.90
2017-07-09T23:11:32.519Z,6.87
2017-07-09T23:14:00.023Z,6.90
2017-07-09T23:16:27.531Z,6.87
2017-07-09T23:18:55.468Z,6.13
2017-07-09T23:21:22.971Z,7.63
2017-07-09T23:23:50.483Z,8.47
2017-07-09T23:26:18.064Z,8.73
2017-07-09T23:28:45.582Z,9.47
2017-07-09T23:31:13.097Z,9.23
2017-07-09T23:33:40.682Z,8.67
2017-07-09T23:36:08.207Z,9.03
2017-07-09T23:38:35.724Z,10.83
2017-07-09T23:41:03.640Z,10.80
2017-07-09T23:43:31.162Z,11.80
2017-07-09T23:45:58.669Z,14.37
2017-07-09T23:48:26.464Z,15.43
2017-07-09T23:50:54.095Z,17.73
2017-07-09T23:53:21.607Z,16.63
2017-07-09T23:55:49.161Z,16.07
2017-07-09T23:58:16.696Z,16.43
